sensor_id;sensor_type;location;lat;lon;timestamp;P1;durP1;ratioP1;P2;durP2;ratioP2
20101;SDS011;10210;52.284;9.892;2024-03-06T00:01:34;21.47;;;11.60;;
20101;SDS011;10210;52.284;9.892;2024-03-06T00:04:00;23.50;;;13.27;;
20101;SDS011;10210;52.284;9.892;2024-03-06T00:06:28;23.27;;;13.47;;
20101;SDS011;10210;52.284;9.892;2024-03-06T00:08:55;23.10;;;13.40;;
20101;SDS011;10210;52.284;9.892;2024-03-06T00:11:21;21.97;;;12.47;;
20101;SDS011;10210;52.284;9.892;2024-03-06T00:13:47;22.97;;;13.10;;
20101;SDS011;10210;52.284;9.892;2024-03-06T00:16:13;24.20;;;13.07;;
20101;SDS011;10210;52.284;9.892;2024-03-06T00:18:39;26.73;;;14.00;;
20101;SDS011;10210;52.284;9.892;2024-03-06T00:21:05;25.50;;;13.03;;
20101;SDS011;10210;52.284;9.892;2024-03-06T00:23:32;23.40;;;13.20;;
20101;SDS011;10210;52.284;9.892;2024-03-06T00:25:58;23.83;;;13.37;;
20101;SDS011;10210;52.284;9.892;2024-03-06T00:28:23;24.20;;;14.37;;
20101;SDS011;10210;52.284;9.892;2024-03-06T00:30:49;22.87;;;12.80;;
20101;SDS011;10210;52.284;9.892;2024-03-06T00:33:15;24.47;;;14.20;;
20101;SDS011;10210;52.284;9.892;2024-03-06T00:35:41;24.97;;;14.43;;
20101;SDS011;10210;52.284;9.892;2024-03-06T00:38:07;23.60;;;13.70;;
20101;SDS011;10210;52.284;9.892;2024-03-06T00:40:33;25.17;;;13.87;;
20101;SDS011;10210;52.284;9.892;2024-03-06T00:42:58;26.00;;;14.03;;
20101;SDS011;10210;52.284;9.892;2024-03-06T00:45:24;25.27;;;14.20;;
20101;SDS011;10210;52.284;9.892;2024-03-06T00:47:50;26.67;;;14.43;;
20101;SDS011;10210;52.284;9.892;2024-03-06T00:50:15;24.30;;;13.93;;
20101;SDS011;10210;52.284;9.892;2024-03-06T00:52:44;25.30;;;14.20;;
20101;SDS011;10210;52.284;9.892;2024-03-06T00:55:12;26.30;;;13.77;;
20101;SDS011;10210;52.284;9.892;2024-03-06T00:57:37;23.00;;;13.40;;
20101;SDS011;10210;52.284;9.892;2024-03-06T01:00:03;24.47;;;13.77;;
20101;SDS011;10210;52.284;9.892;2024-03-06T01:02:36;22.73;;;13.33;;
20101;SDS011;10210;52.284;9.892;2024-03-06T01:05:05;24.90;;;12.47;;
20101;SDS011;10210;52.284;9.892;2024-03-06T01:07:34;25.93;;;15.23;;
20101;SDS011;10210;52.284;9.892;2024-03-06T01:10:03;26.33;;;14.33;;
20101;SDS011;10210;52.284;9.892;2024-03-06T01:12:32;24.63;;;13.83;;
20101;SDS011;10210;52.284;9.892;2024-03-06T01:14:58;26.23;;;14.37;;
20101;SDS011;10210;52.284;9.892;2024-03-06T01:17:23;25.17;;;13.43;;
20101;SDS011;10210;52.284;9.892;2024-03-06T01:19:50;23.87;;;13.73;;
20101;SDS011;10210;52.284;9.892;2024-03-06T01:22:16;24.70;;;13.60;;
20101;SDS011;10210;52.284;9.892;2024-03-06T01:24:42;25.47;;;14.50;;
20101;SDS011;10210;52.284;9.892;2024-03-06T01:27:08;24.97;;;13.83;;
20101;SDS011;10210;52.284;9.892;2024-03-06T01:29:35;28.57;;;14.20;;
20101;SDS011;10210;52.284;9.892;2024-03-06T01:32:02;25.40;;;14.07;;
20101;SDS011;10210;52.284;9.892;2024-03-06T01:34:27;23.07;;;13.13;;
20101;SDS011;10210;52.284;9.892;2024-03-06T01:36:54;28.33;;;13.77;;
20101;SDS011;10210;52.284;9.892;2024-03-06T01:39:21;25.97;;;14.00;;
20101;SDS011;10210;52.284;9.892;2024-03-06T01:41:47;27.07;;;14.87;;
20101;SDS011;10210;52.284;9.892;2024-03-06T01:44:14;24.50;;;14.07;;
20101;SDS011;10210;52.284;9.892;2024-03-06T01:46:42;24.27;;;13.67;;
20101;SDS011;10210;52.284;9.892;2024-03-06T01:49:11;26.07;;;13.80;;
20101;SDS011;10210;52.284;9.892;2024-03-06T01:51:38;24.00;;;14.07;;
20101;SDS011;10210;52.284;9.892;2024-03-06T01:54:06;27.30;;;14.13;;
20101;SDS011;10210;52.284;9.892;2024-03-06T01:56:35;27.03;;;14.57;;
20101;SDS011;10210;52.284;9.892;2024-03-06T01:59:07;24.77;;;13.67;;
20101;SDS011;10210;52.284;9.892;2024-03-06T02:01:33;26.70;;;14.53;;
20101;SDS011;10210;52.284;9.892;2024-03-06T02:03:59;27.77;;;15.13;;
20101;SDS011;10210;52.284;9.892;2024-03-06T02:06:25;25.67;;;14.10;;
20101;SDS011;10210;52.284;9.892;2024-03-06T02:08:51;28.50;;;14.83;;
20101;SDS011;10210;52.284;9.892;2024-03-06T02:11:17;24.67;;;14.13;;
20101;SDS011;10210;52.284;9.892;2024-03-06T02:13:43;23.57;;;13.07;;
20101;SDS011;10210;52.284;9.892;2024-03-06T02:16:09;24.23;;;13.13;;
20101;SDS011;10210;52.284;9.892;2024-03-06T02:18:35;26.93;;;13.47;;
20101;SDS011;10210;52.284;9.892;2024-03-06T02:21:02;23.57;;;13.97;;
20101;SDS011;10210;52.284;9.892;2024-03-06T02:23:29;26.50;;;12.90;;
20101;SDS011;10210;52.284;9.892;2024-03-06T02:25:56;26.03;;;13.63;;
20101;SDS011;10210;52.284;9.892;2024-03-06T02:28:21;22.13;;;12.37;;
20101;SDS011;10210;52.284;9.892;2024-03-06T02:30:50;26.83;;;12.83;;
20101;SDS011;10210;52.284;9.892;2024-03-06T02:33:16;22.90;;;11.30;;
20101;SDS011;10210;52.284;9.892;2024-03-06T02:35:43;21.43;;;11.23;;
20101;SDS011;10210;52.284;9.892;2024-03-06T02:38:11;22.63;;;11.17;;
20101;SDS011;10210;52.284;9.892;2024-03-06T02:40:36;21.33;;;11.03;;
20101;SDS011;10210;52.284;9.892;2024-03-06T02:43:02;21.27;;;12.37;;
20101;SDS011;10210;52.284;9.892;2024-03-06T02:45:29;23.83;;;12.23;;
20101;SDS011;10210;52.284;9.892;2024-03-06T02:47:55;23.70;;;11.83;;
20101;SDS011;10210;52.284;9.892;2024-03-06T02:50:21;22.93;;;12.07;;
20101;SDS011;10210;52.284;9.892;2024-03-06T02:52:48;23.23;;;12.27;;
20101;SDS011;10210;52.284;9.892;2024-03-06T02:55:15;24.00;;;12.90;;
20101;SDS011;10210;52.284;9.892;2024-03-06T02:57:40;23.10;;;12.17;;
20101;SDS011;10210;52.284;9.892;2024-03-06T03:00:06;22.53;;;11.97;;
20101;SDS011;10210;52.284;9.892;2024-03-06T03:02:38;23.50;;;12.00;;
20101;SDS011;10210;52.284;9.892;2024-03-06T03:05:05;23.53;;;12.83;;
20101;SDS011;10210;52.284;9.892;2024-03-06T03:07:31;23.13;;;11.43;;
20101;SDS011;10210;52.284;9.892;2024-03-06T03:09:57;24.43;;;11.80;;
20101;SDS011;10210;52.284;9.892;2024-03-06T03:12:22;22.50;;;12.00;;
20101;SDS011;10210;52.284;9.892;2024-03-06T03:14:48;22.70;;;12.10;;
20101;SDS011;10210;52.284;9.892;2024-03-06T03:17:13;23.13;;;11.80;;
20101;SDS011;10210;52.284;9.892;2024-03-06T03:19:40;22.20;;;12.20;;
20101;SDS011;10210;52.284;9.892;2024-03-06T03:22:06;21.80;;;11.50;;
20101;SDS011;10210;52.284;9.892;2024-03-06T03:24:34;23.03;;;11.73;;
20101;SDS011;10210;52.284;9.892;2024-03-06T03:26:59;22.30;;;12.07;;
20101;SDS011;10210;52.284;9.892;2024-03-06T03:29:26;21.43;;;11.87;;
20101;SDS011;10210;52.284;9.892;2024-03-06T03:31:51;25.53;;;12.80;;
20101;SDS011;10210;52.284;9.892;2024-03-06T03:34:18;21.87;;;12.03;;
20101;SDS011;10210;52.284;9.892;2024-03-06T03:36:43;21.97;;;11.90;;
20101;SDS011;10210;52.284;9.892;2024-03-06T03:39:10;22.07;;;12.27;;
20101;SDS011;10210;52.284;9.892;2024-03-06T03:41:47;26.43;;;13.23;;
20101;SDS011;10210;52.284;9.892;2024-03-06T03:44:15;25.30;;;12.70;;
20101;SDS011;10210;52.284;9.892;2024-03-06T03:46:43;22.60;;;12.33;;
20101;SDS011;10210;52.284;9.892;2024-03-06T03:49:10;22.50;;;12.10;;
20101;SDS011;10210;52.284;9.892;2024-03-06T03:51:37;22.00;;;12.23;;
20101;SDS011;10210;52.284;9.892;2024-03-06T03:54:04;23.87;;;13.00;;
20101;SDS011;10210;52.284;9.892;2024-03-06T03:56:30;23.87;;;12.60;;
20101;SDS011;10210;52.284;9.892;2024-03-06T03:58:57;22.00;;;11.97;;
20101;SDS011;10210;52.284;9.892;2024-03-06T04:01:23;23.87;;;12.50;;
20101;SDS011;10210;52.284;9.892;2024-03-06T04:03:51;24.37;;;13.30;;
20101;SDS011;10210;52.284;9.892;2024-03-06T04:06:17;25.40;;;12.80;;
20101;SDS011;10210;52.284;9.892;2024-03-06T04:08:43;23.37;;;12.30;;
20101;SDS011;10210;52.284;9.892;2024-03-06T04:11:11;23.10;;;12.57;;
20101;SDS011;10210;52.284;9.892;2024-03-06T04:13:37;21.70;;;12.10;;
20101;SDS011;10210;52.284;9.892;2024-03-06T04:16:04;23.10;;;12.40;;
20101;SDS011;10210;52.284;9.892;2024-03-06T04:18:30;22.93;;;12.13;;
20101;SDS011;10210;52.284;9.892;2024-03-06T04:20:59;23.37;;;12.17;;
20101;SDS011;10210;52.284;9.892;2024-03-06T04:23:29;21.83;;;12.17;;
20101;SDS011;10210;52.284;9.892;2024-03-06T04:25:55;22.40;;;12.23;;
20101;SDS011;10210;52.284;9.892;2024-03-06T04:28:20;23.73;;;12.47;;
20101;SDS011;10210;52.284;9.892;2024-03-06T04:30:46;23.80;;;12.13;;
20101;SDS011;10210;52.284;9.892;2024-03-06T04:33:12;23.30;;;13.00;;
20101;SDS011;10210;52.284;9.892;2024-03-06T04:35:39;22.40;;;12.27;;
20101;SDS011;10210;52.284;9.892;2024-03-06T04:38:06;24.20;;;12.77;;
20101;SDS011;10210;52.284;9.892;2024-03-06T04:40:33;25.27;;;13.33;;
20101;SDS011;10210;52.284;9.892;2024-03-06T04:42:59;24.77;;;13.70;;
20101;SDS011;10210;52.284;9.892;2024-03-06T04:45:28;25.80;;;13.50;;
20101;SDS011;10210;52.284;9.892;2024-03-06T04:47:55;23.50;;;13.23;;
20101;SDS011;10210;52.284;9.892;2024-03-06T04:50:20;23.93;;;13.53;;
20101;SDS011;10210;52.284;9.892;2024-03-06T04:52:46;24.93;;;13.50;;
20101;SDS011;10210;52.284;9.892;2024-03-06T04:55:12;26.70;;;13.40;;
20101;SDS011;10210;52.284;9.892;2024-03-06T04:57:42;23.00;;;13.10;;
20101;SDS011;10210;52.284;9.892;2024-03-06T05:00:09;23.03;;;12.73;;
20101;SDS011;10210;52.284;9.892;2024-03-06T05:02:36;22.33;;;12.27;;
20101;SDS011;10210;52.284;9.892;2024-03-06T05:05:02;26.17;;;14.27;;
20101;SDS011;10210;52.284;9.892;2024-03-06T05:07:29;23.60;;;13.07;;
20101;SDS011;10210;52.284;9.892;2024-03-06T05:09:56;23.10;;;12.43;;
20101;SDS011;10210;52.284;9.892;2024-03-06T05:12:24;25.47;;;12.33;;
20101;SDS011;10210;52.284;9.892;2024-03-06T05:14:50;23.53;;;12.23;;
20101;SDS011;10210;52.284;9.892;2024-03-06T05:17:17;25.67;;;13.13;;
20101;SDS011;10210;52.284;9.892;2024-03-06T05:19:43;25.30;;;13.13;;
20101;SDS011;10210;52.284;9.892;2024-03-06T05:22:15;26.83;;;12.77;;
20101;SDS011;10210;52.284;9.892;2024-03-06T05:24:41;25.67;;;13.43;;
20101;SDS011;10210;52.284;9.892;2024-03-06T05:27:09;24.73;;;13.93;;
20101;SDS011;10210;52.284;9.892;2024-03-06T05:29:38;26.87;;;14.90;;
20101;SDS011;10210;52.284;9.892;2024-03-06T05:32:04;26.10;;;13.40;;
20101;SDS011;10210;52.284;9.892;2024-03-06T05:34:32;24.43;;;12.93;;
20101;SDS011;10210;52.284;9.892;2024-03-06T05:36:58;24.20;;;12.00;;
20101;SDS011;10210;52.284;9.892;2024-03-06T05:39:26;23.57;;;13.27;;
20101;SDS011;10210;52.284;9.892;2024-03-06T05:41:55;25.20;;;12.57;;
20101;SDS011;10210;52.284;9.892;2024-03-06T05:44:27;24.57;;;13.00;;
20101;SDS011;10210;52.284;9.892;2024-03-06T05:46:54;25.77;;;12.93;;
20101;SDS011;10210;52.284;9.892;2024-03-06T05:49:19;24.07;;;13.20;;
20101;SDS011;10210;52.284;9.892;2024-03-06T05:51:45;24.13;;;13.13;;
20101;SDS011;10210;52.284;9.892;2024-03-06T05:54:12;23.40;;;12.80;;
20101;SDS011;10210;52.284;9.892;2024-03-06T05:56:37;23.50;;;12.80;;
20101;SDS011;10210;52.284;9.892;2024-03-06T05:59:04;24.63;;;13.00;;
20101;SDS011;10210;52.284;9.892;2024-03-06T06:01:33;23.37;;;13.13;;
20101;SDS011;10210;52.284;9.892;2024-03-06T06:04:01;25.87;;;14.53;;
20101;SDS011;10210;52.284;9.892;2024-03-06T06:06:27;25.30;;;13.43;;
20101;SDS011;10210;52.284;9.892;2024-03-06T06:08:53;27.50;;;13.63;;
20101;SDS011;10210;52.284;9.892;2024-03-06T06:11:19;24.17;;;13.57;;
20101;SDS011;10210;52.284;9.892;2024-03-06T06:13:44;27.20;;;15.00;;
20101;SDS011;10210;52.284;9.892;2024-03-06T06:16:10;26.53;;;13.33;;
20101;SDS011;10210;52.284;9.892;2024-03-06T06:18:36;24.90;;;14.77;;
20101;SDS011;10210;52.284;9.892;2024-03-06T06:21:02;24.63;;;13.43;;
20101;SDS011;10210;52.284;9.892;2024-03-06T06:23:32;25.63;;;13.67;;
20101;SDS011;10210;52.284;9.892;2024-03-06T06:25:58;26.47;;;13.60;;
20101;SDS011;10210;52.284;9.892;2024-03-06T06:28:23;23.37;;;12.50;;
20101;SDS011;10210;52.284;9.892;2024-03-06T06:30:49;25.30;;;13.57;;
20101;SDS011;10210;52.284;9.892;2024-03-06T06:33:17;27.63;;;13.30;;
20101;SDS011;10210;52.284;9.892;2024-03-06T06:35:46;25.20;;;13.13;;
20101;SDS011;10210;52.284;9.892;2024-03-06T06:38:12;23.60;;;13.30;;
20101;SDS011;10210;52.284;9.892;2024-03-06T06:40:38;26.70;;;13.37;;
20101;SDS011;10210;52.284;9.892;2024-03-06T06:43:05;23.47;;;13.50;;
20101;SDS011;10210;52.284;9.892;2024-03-06T06:45:32;23.97;;;12.97;;
20101;SDS011;10210;52.284;9.892;2024-03-06T06:47:58;24.63;;;13.73;;
20101;SDS011;10210;52.284;9.892;2024-03-06T06:50:23;23.63;;;13.17;;
20101;SDS011;10210;52.284;9.892;2024-03-06T06:52:51;26.63;;;13.97;;
20101;SDS011;10210;52.284;9.892;2024-03-06T06:55:17;26.17;;;14.17;;
20101;SDS011;10210;52.284;9.892;2024-03-06T06:57:45;24.13;;;13.77;;
20101;SDS011;10210;52.284;9.892;2024-03-06T07:00:11;24.00;;;13.80;;
20101;SDS011;10210;52.284;9.892;2024-03-06T07:02:37;25.53;;;13.43;;
20101;SDS011;10210;52.284;9.892;2024-03-06T07:05:04;25.80;;;14.20;;
20101;SDS011;10210;52.284;9.892;2024-03-06T07:07:30;28.40;;;15.93;;
20101;SDS011;10210;52.284;9.892;2024-03-06T07:09:56;25.40;;;14.13;;
20101;SDS011;10210;52.284;9.892;2024-03-06T07:12:22;24.70;;;13.97;;
20101;SDS011;10210;52.284;9.892;2024-03-06T07:14:49;26.77;;;14.87;;
20101;SDS011;10210;52.284;9.892;2024-03-06T07:17:15;26.37;;;15.03;;
20101;SDS011;10210;52.284;9.892;2024-03-06T07:19:41;26.20;;;14.73;;
20101;SDS011;10210;52.284;9.892;2024-03-06T07:22:07;23.13;;;13.53;;
20101;SDS011;10210;52.284;9.892;2024-03-06T07:24:32;26.83;;;14.47;;
20101;SDS011;10210;52.284;9.892;2024-03-06T07:26:58;25.13;;;13.97;;
20101;SDS011;10210;52.284;9.892;2024-03-06T07:29:26;24.57;;;13.57;;
20101;SDS011;10210;52.284;9.892;2024-03-06T07:31:52;26.10;;;13.67;;
20101;SDS011;10210;52.284;9.892;2024-03-06T07:34:19;23.80;;;13.90;;
20101;SDS011;10210;52.284;9.892;2024-03-06T07:36:48;24.63;;;13.07;;
20101;SDS011;10210;52.284;9.892;2024-03-06T07:39:21;26.13;;;14.17;;
20101;SDS011;10210;52.284;9.892;2024-03-06T07:41:47;22.93;;;13.07;;
20101;SDS011;10210;52.284;9.892;2024-03-06T07:44:14;23.97;;;12.47;;
20101;SDS011;10210;52.284;9.892;2024-03-06T07:46:39;25.07;;;14.13;;
20101;SDS011;10210;52.284;9.892;2024-03-06T07:49:05;24.63;;;13.80;;
20101;SDS011;10210;52.284;9.892;2024-03-06T07:51:31;23.47;;;13.43;;
20101;SDS011;10210;52.284;9.892;2024-03-06T07:53:57;24.93;;;13.90;;
20101;SDS011;10210;52.284;9.892;2024-03-06T07:56:25;23.67;;;13.47;;
20101;SDS011;10210;52.284;9.892;2024-03-06T07:58:52;24.47;;;13.07;;
20101;SDS011;10210;52.284;9.892;2024-03-06T08:01:18;25.40;;;13.67;;
20101;SDS011;10210;52.284;9.892;2024-03-06T08:03:45;24.70;;;13.43;;
20101;SDS011;10210;52.284;9.892;2024-03-06T08:06:11;26.53;;;14.03;;
20101;SDS011;10210;52.284;9.892;2024-03-06T08:08:40;26.00;;;13.83;;
20101;SDS011;10210;52.284;9.892;2024-03-06T08:11:10;24.93;;;13.77;;
20101;SDS011;10210;52.284;9.892;2024-03-06T08:13:37;28.07;;;13.77;;
20101;SDS011;10210;52.284;9.892;2024-03-06T08:16:03;27.90;;;16.37;;
20101;SDS011;10210;52.284;9.892;2024-03-06T08:18:31;26.40;;;14.90;;
20101;SDS011;10210;52.284;9.892;2024-03-06T08:20:58;25.50;;;14.33;;
20101;SDS011;10210;52.284;9.892;2024-03-06T08:23:24;27.90;;;15.03;;
20101;SDS011;10210;52.284;9.892;2024-03-06T08:25:50;27.67;;;14.90;;
20101;SDS011;10210;52.284;9.892;2024-03-06T08:28:17;27.23;;;14.10;;
20101;SDS011;10210;52.284;9.892;2024-03-06T08:30:43;26.10;;;14.00;;
20101;SDS011;10210;52.284;9.892;2024-03-06T08:33:09;26.83;;;14.53;;
20101;SDS011;10210;52.284;9.892;2024-03-06T08:35:35;24.47;;;14.30;;
20101;SDS011;10210;52.284;9.892;2024-03-06T08:38:01;25.53;;;13.87;;
20101;SDS011;10210;52.284;9.892;2024-03-06T08:40:26;25.33;;;14.40;;
20101;SDS011;10210;52.284;9.892;2024-03-06T08:42:53;27.37;;;15.47;;
20101;SDS011;10210;52.284;9.892;2024-03-06T08:45:19;25.90;;;14.90;;
20101;SDS011;10210;52.284;9.892;2024-03-06T08:47:45;25.17;;;14.00;;
20101;SDS011;10210;52.284;9.892;2024-03-06T08:50:15;25.27;;;14.53;;
20101;SDS011;10210;52.284;9.892;2024-03-06T08:52:41;30.47;;;15.07;;
20101;SDS011;10210;52.284;9.892;2024-03-06T08:55:08;27.27;;;15.07;;
20101;SDS011;10210;52.284;9.892;2024-03-06T08:57:37;28.50;;;14.80;;
20101;SDS011;10210;52.284;9.892;2024-03-06T09:00:04;26.60;;;14.00;;
20101;SDS011;10210;52.284;9.892;2024-03-06T09:02:35;27.37;;;15.67;;
20101;SDS011;10210;52.284;9.892;2024-03-06T09:05:08;28.67;;;15.93;;
20101;SDS011;10210;52.284;9.892;2024-03-06T09:07:36;25.20;;;14.87;;
20101;SDS011;10210;52.284;9.892;2024-03-06T09:10:06;26.03;;;15.23;;
20101;SDS011;10210;52.284;9.892;2024-03-06T09:12:35;25.70;;;15.07;;
20101;SDS011;10210;52.284;9.892;2024-03-06T09:15:02;27.67;;;15.40;;
20101;SDS011;10210;52.284;9.892;2024-03-06T09:17:30;28.37;;;15.57;;
20101;SDS011;10210;52.284;9.892;2024-03-06T09:19:56;27.57;;;17.23;;
20101;SDS011;10210;52.284;9.892;2024-03-06T09:22:22;29.70;;;17.70;;
20101;SDS011;10210;52.284;9.892;2024-03-06T09:24:47;33.03;;;17.63;;
20101;SDS011;10210;52.284;9.892;2024-03-06T09:27:14;30.27;;;18.50;;
20101;SDS011;10210;52.284;9.892;2024-03-06T09:29:43;31.70;;;19.10;;
20101;SDS011;10210;52.284;9.892;2024-03-06T09:32:09;30.43;;;17.53;;
20101;SDS011;10210;52.284;9.892;2024-03-06T09:34:34;29.97;;;17.40;;
20101;SDS011;10210;52.284;9.892;2024-03-06T09:37:01;30.50;;;18.27;;
20101;SDS011;10210;52.284;9.892;2024-03-06T09:39:28;31.50;;;18.03;;
20101;SDS011;10210;52.284;9.892;2024-03-06T09:41:54;32.90;;;18.30;;
20101;SDS011;10210;52.284;9.892;2024-03-06T09:44:21;31.97;;;17.37;;
20101;SDS011;10210;52.284;9.892;2024-03-06T09:46:48;30.73;;;18.77;;
20101;SDS011;10210;52.284;9.892;2024-03-06T09:49:15;30.07;;;18.27;;
20101;SDS011;10210;52.284;9.892;2024-03-06T09:51:45;29.77;;;18.33;;
20101;SDS011;10210;52.284;9.892;2024-03-06T09:54:15;33.17;;;18.23;;
20101;SDS011;10210;52.284;9.892;2024-03-06T09:56:45;32.50;;;18.63;;
20101;SDS011;10210;52.284;9.892;2024-03-06T09:59:12;32.07;;;18.93;;
20101;SDS011;10210;52.284;9.892;2024-03-06T10:01:40;31.47;;;18.83;;
20101;SDS011;10210;52.284;9.892;2024-03-06T10:04:25;29.97;;;18.37;;
20101;SDS011;10210;52.284;9.892;2024-03-06T10:06:55;31.17;;;19.83;;
20101;SDS011;10210;52.284;9.892;2024-03-06T10:09:23;31.87;;;19.33;;
20101;SDS011;10210;52.284;9.892;2024-03-06T10:11:50;33.30;;;19.50;;
20101;SDS011;10210;52.284;9.892;2024-03-06T10:14:21;33.30;;;20.27;;
20101;SDS011;10210;52.284;9.892;2024-03-06T10:19:23;33.43;;;19.57;;
20101;SDS011;10210;52.284;9.892;2024-03-06T10:21:52;32.93;;;20.53;;
20101;SDS011;10210;52.284;9.892;2024-03-06T10:24:19;32.40;;;19.53;;
20101;SDS011;10210;52.284;9.892;2024-03-06T10:26:50;32.80;;;20.00;;
20101;SDS011;10210;52.284;9.892;2024-03-06T10:29:19;34.73;;;20.30;;
20101;SDS011;10210;52.284;9.892;2024-03-06T10:31:54;34.10;;;21.03;;
20101;SDS011;10210;52.284;9.892;2024-03-06T10:34:25;34.70;;;21.50;;
20101;SDS011;10210;52.284;9.892;2024-03-06T10:36:56;34.43;;;19.93;;
20101;SDS011;10210;52.284;9.892;2024-03-06T10:39:24;31.87;;;20.30;;
20101;SDS011;10210;52.284;9.892;2024-03-06T10:41:54;32.83;;;20.60;;
20101;SDS011;10210;52.284;9.892;2024-03-06T10:44:25;33.37;;;19.33;;
20101;SDS011;10210;52.284;9.892;2024-03-06T10:47:01;31.97;;;19.63;;
20101;SDS011;10210;52.284;9.892;2024-03-06T10:49:31;32.40;;;18.27;;
20101;SDS011;10210;52.284;9.892;2024-03-06T10:52:05;32.30;;;19.63;;
20101;SDS011;10210;52.284;9.892;2024-03-06T10:54:31;32.97;;;19.20;;
20101;SDS011;10210;52.284;9.892;2024-03-06T10:57:00;32.27;;;18.97;;
20101;SDS011;10210;52.284;9.892;2024-03-06T10:59:27;30.17;;;18.53;;
20101;SDS011;10210;52.284;9.892;2024-03-06T11:01:55;34.20;;;19.57;;
20101;SDS011;10210;52.284;9.892;2024-03-06T11:04:28;30.97;;;19.17;;
20101;SDS011;10210;52.284;9.892;2024-03-06T11:06:59;33.90;;;19.53;;
20101;SDS011;10210;52.284;9.892;2024-03-06T11:09:36;32.97;;;19.43;;
20101;SDS011;10210;52.284;9.892;2024-03-06T11:12:03;29.03;;;18.67;;
20101;SDS011;10210;52.284;9.892;2024-03-06T11:14:37;29.07;;;17.80;;
20101;SDS011;10210;52.284;9.892;2024-03-06T11:17:05;31.00;;;18.73;;
20101;SDS011;10210;52.284;9.892;2024-03-06T11:28:30;29.37;;;17.47;;
20101;SDS011;10210;52.284;9.892;2024-03-06T11:31:02;31.20;;;18.37;;
20101;SDS011;10210;52.284;9.892;2024-03-06T11:33:34;30.93;;;18.27;;
20101;SDS011;10210;52.284;9.892;2024-03-06T11:38:50;31.00;;;18.03;;
20101;SDS011;10210;52.284;9.892;2024-03-06T11:41:28;32.53;;;18.37;;
20101;SDS011;10210;52.284;9.892;2024-03-06T11:44:01;29.20;;;17.30;;
20101;SDS011;10210;52.284;9.892;2024-03-06T11:49:23;29.53;;;16.93;;
20101;SDS011;10210;52.284;9.892;2024-03-06T11:51:51;31.13;;;17.17;;
20101;SDS011;10210;52.284;9.892;2024-03-06T11:54:18;26.73;;;16.23;;
20101;SDS011;10210;52.284;9.892;2024-03-06T11:56:48;28.47;;;16.37;;
20101;SDS011;10210;52.284;9.892;2024-03-06T11:59:22;29.67;;;17.50;;
20101;SDS011;10210;52.284;9.892;2024-03-06T12:01:49;28.80;;;17.50;;
20101;SDS011;10210;52.284;9.892;2024-03-06T12:04:18;28.80;;;16.73;;
20101;SDS011;10210;52.284;9.892;2024-03-06T12:06:45;26.23;;;16.10;;
20101;SDS011;10210;52.284;9.892;2024-03-06T12:09:11;27.63;;;16.90;;
20101;SDS011;10210;52.284;9.892;2024-03-06T12:11:37;26.90;;;17.37;;
20101;SDS011;10210;52.284;9.892;2024-03-06T12:14:03;29.10;;;16.77;;
20101;SDS011;10210;52.284;9.892;2024-03-06T12:16:30;25.87;;;15.80;;
20101;SDS011;10210;52.284;9.892;2024-03-06T12:18:56;29.47;;;16.60;;
20101;SDS011;10210;52.284;9.892;2024-03-06T12:21:27;26.67;;;15.47;;
20101;SDS011;10210;52.284;9.892;2024-03-06T12:24:05;31.60;;;17.03;;
20101;SDS011;10210;52.284;9.892;2024-03-06T12:26:32;30.50;;;16.57;;
20101;SDS011;10210;52.284;9.892;2024-03-06T12:29:05;29.90;;;16.07;;
20101;SDS011;10210;52.284;9.892;2024-03-06T12:31:33;31.00;;;18.17;;
20101;SDS011;10210;52.284;9.892;2024-03-06T12:34:01;29.67;;;16.67;;
20101;SDS011;10210;52.284;9.892;2024-03-06T12:36:28;29.00;;;17.27;;
20101;SDS011;10210;52.284;9.892;2024-03-06T12:39:01;30.00;;;17.27;;
20101;SDS011;10210;52.284;9.892;2024-03-06T12:41:37;27.17;;;17.30;;
20101;SDS011;10210;52.284;9.892;2024-03-06T12:44:05;29.63;;;17.43;;
20101;SDS011;10210;52.284;9.892;2024-03-06T12:46:31;28.67;;;17.77;;
20101;SDS011;10210;52.284;9.892;2024-03-06T12:48:57;28.93;;;17.00;;
20101;SDS011;10210;52.284;9.892;2024-03-06T12:51:23;26.03;;;16.63;;
20101;SDS011;10210;52.284;9.892;2024-03-06T12:53:49;27.27;;;16.33;;
20101;SDS011;10210;52.284;9.892;2024-03-06T12:56:16;26.17;;;15.53;;
20101;SDS011;10210;52.284;9.892;2024-03-06T12:58:42;28.03;;;16.43;;
20101;SDS011;10210;52.284;9.892;2024-03-06T13:01:08;26.67;;;16.80;;
20101;SDS011;10210;52.284;9.892;2024-03-06T13:03:35;26.57;;;16.20;;
20101;SDS011;10210;52.284;9.892;2024-03-06T13:06:02;27.20;;;16.10;;
20101;SDS011;10210;52.284;9.892;2024-03-06T13:08:29;26.73;;;15.67;;
20101;SDS011;10210;52.284;9.892;2024-03-06T13:10:55;26.23;;;15.70;;
20101;SDS011;10210;52.284;9.892;2024-03-06T13:13:21;29.33;;;16.83;;
20101;SDS011;10210;52.284;9.892;2024-03-06T13:15:49;24.60;;;14.50;;
20101;SDS011;10210;52.284;9.892;2024-03-06T13:18:18;27.30;;;15.63;;
20101;SDS011;10210;52.284;9.892;2024-03-06T13:20:43;27.53;;;16.73;;
20101;SDS011;10210;52.284;9.892;2024-03-06T13:23:10;26.17;;;15.97;;
20101;SDS011;10210;52.284;9.892;2024-03-06T13:25:36;25.67;;;15.27;;
20101;SDS011;10210;52.284;9.892;2024-03-06T13:28:03;25.73;;;14.80;;
20101;SDS011;10210;52.284;9.892;2024-03-06T13:30:30;26.47;;;15.37;;
20101;SDS011;10210;52.284;9.892;2024-03-06T13:32:56;25.57;;;15.67;;
20101;SDS011;10210;52.284;9.892;2024-03-06T13:35:22;26.87;;;14.67;;
20101;SDS011;10210;52.284;9.892;2024-03-06T13:37:48;25.20;;;14.63;;
20101;SDS011;10210;52.284;9.892;2024-03-06T13:40:16;24.50;;;13.17;;
20101;SDS011;10210;52.284;9.892;2024-03-06T13:42:43;24.97;;;15.27;;
20101;SDS011;10210;52.284;9.892;2024-03-06T13:45:09;27.87;;;16.70;;
20101;SDS011;10210;52.284;9.892;2024-03-06T13:47:39;26.13;;;15.50;;
20101;SDS011;10210;52.284;9.892;2024-03-06T13:50:08;24.40;;;15.33;;
20101;SDS011;10210;52.284;9.892;2024-03-06T13:52:35;24.93;;;15.03;;
20101;SDS011;10210;52.284;9.892;2024-03-06T13:55:01;26.20;;;16.23;;
20101;SDS011;10210;52.284;9.892;2024-03-06T13:57:29;26.13;;;15.53;;
20101;SDS011;10210;52.284;9.892;2024-03-06T13:59:58;23.57;;;15.20;;
20101;SDS011;10210;52.284;9.892;2024-03-06T14:02:42;21.77;;;13.43;;
20101;SDS011;10210;52.284;9.892;2024-03-06T14:05:10;27.80;;;16.30;;
20101;SDS011;10210;52.284;9.892;2024-03-06T14:07:37;28.27;;;17.57;;
20101;SDS011;10210;52.284;9.892;2024-03-06T14:10:04;29.30;;;17.03;;
20101;SDS011;10210;52.284;9.892;2024-03-06T14:12:32;26.50;;;15.97;;
20101;SDS011;10210;52.284;9.892;2024-03-06T14:14:58;23.83;;;14.33;;
20101;SDS011;10210;52.284;9.892;2024-03-06T14:17:25;28.73;;;17.30;;
20101;SDS011;10210;52.284;9.892;2024-03-06T14:19:50;23.27;;;14.53;;
20101;SDS011;10210;52.284;9.892;2024-03-06T14:22:16;27.47;;;16.40;;
20101;SDS011;10210;52.284;9.892;2024-03-06T14:24:42;29.37;;;17.13;;
20101;SDS011;10210;52.284;9.892;2024-03-06T14:27:07;26.53;;;16.47;;
20101;SDS011;10210;52.284;9.892;2024-03-06T14:29:33;27.23;;;16.13;;
20101;SDS011;10210;52.284;9.892;2024-03-06T14:31:59;27.10;;;16.33;;
20101;SDS011;10210;52.284;9.892;2024-03-06T14:34:25;26.67;;;16.57;;
20101;SDS011;10210;52.284;9.892;2024-03-06T14:36:51;28.30;;;16.90;;
20101;SDS011;10210;52.284;9.892;2024-03-06T14:39:17;27.10;;;16.33;;